• Join FlightAware (Why Join?)
  • Login
  • US Flag 
12:52PM EDT


 

Airport Tracker/Info


-or-


 

Live Flight TrackerFlight Track Log ✈ THY1943 ✈ 07-May-2012 ✈ LTBA / IST - EBBR / BRU

Flight Track Log - Related Links

Times and Time Zones

All times are in EDT time to prevent confusion due to time zone crossing. See the THY1943 flight status page for this flight to view local times or setup timezone preferences in your user account.

Time Position Orientation Groundspeed Altitude Reporting Facility
EDT Latitude Longitude Course Direction KTS MPH feet Rate Location/Type
05:09AM 41.2271 28.4064 309° West  Level Estimated
05:10AM 41.2977 28.2884 308° West  Level Estimated
05:11AM 41.3681 28.1702 308° West  Level Estimated
05:12AM 41.4384 28.0517 308° West  Level Estimated
05:13AM 41.5086 27.9330 308° West  Level Estimated
05:14AM 41.5786 27.8140 308° West  Level Estimated
05:15AM 41.6486 27.6948 308° West  Level Estimated
05:16AM 41.7184 27.5753 308° West  Level Estimated
05:17AM 41.7881 27.4555 308° West  Level Estimated
05:18AM 41.8576 27.3355 308° West  Level Estimated
05:19AM 41.9271 27.2152 308° West  Level Estimated
05:20AM 41.9964 27.0947 308° West  Level Estimated
05:21AM 42.0656 26.9739 308° West  Level Estimated
05:22AM 42.1346 26.8528 308° West  Level Estimated
05:23AM 42.2036 26.7315 307° West  Level Estimated
05:24AM 42.2724 26.6099 307° West  Level Estimated
05:25AM 42.3411 26.4880 307° West  Level Estimated
05:26AM 42.4096 26.3659 307° West  Level Estimated
05:27AM 42.4780 26.2435 307° West  Level Estimated
05:28AM 42.5463 26.1208 307° West  Level Estimated
05:29AM 42.6145 25.9979 307° West  Level Estimated
05:30AM 42.6825 25.8747 307° West  Level Estimated
05:31AM 42.7504 25.7512 307° West  Level Estimated
05:32AM 42.8181 25.6275 307° West  Level Estimated
05:33AM 42.8858 25.5035 307° West  Level Estimated
05:34AM 42.9533 25.3792 307° West  Level Estimated
05:35AM 43.0206 25.2547 306° West  Level Estimated
05:36AM 43.0878 25.1298 306° West  Level Estimated
05:37AM 43.1549 25.0047 306° West  Level Estimated
05:38AM 43.2219 24.8794 306° West  Level Estimated
05:39AM 43.2887 24.7537 306° West  Level Estimated
05:40AM 43.3554 24.6278 306° West  Level Estimated
05:41AM 43.4219 24.5016 306° West  Level Estimated
05:42AM 43.4883 24.3751 306° West  Level Estimated
05:43AM 43.5546 24.2483 306° West  Level Estimated
05:44AM 43.6207 24.1213 306° West  Level Estimated
05:45AM 43.6866 23.9940 306° West  Level Estimated
05:46AM 43.7525 23.8664 305° West  Level Estimated
05:47AM 43.8182 23.7385 305° West  Level Estimated
05:48AM 43.8837 23.6103 305° West  Level Estimated
05:49AM 43.9491 23.4819 305° West  Level Estimated
05:50AM 44.0144 23.3531 305° West  Level Estimated
05:51AM 44.0795 23.2241 305° West  Level Estimated
05:52AM 44.1445 23.0949 305° West  Level Estimated
05:53AM 44.2093 22.9653 305° West  Level Estimated
05:54AM 44.2740 22.8354 305° West  Level Estimated
05:55AM 44.3385 22.7053 305° West  Level Estimated
05:56AM 44.4029 22.5748 305° West  Level Estimated
05:57AM 44.4671 22.4441 304° West  Level Estimated
05:58AM 44.5312 22.3131 304° West  Level Estimated
05:59AM 44.5951 22.1818 304° West  Level Estimated
06:00AM 44.6589 22.0502 304° West  Level Estimated
06:01AM 44.7225 21.9183 304° West  Level Estimated
06:02AM 44.7860 21.7861 304° West  Level Estimated
06:03AM 44.8493 21.6537 304° West  Level Estimated
06:04AM 44.9125 21.5209 304° West  Level Estimated
06:05AM 44.9755 21.3879 304° West  Level Estimated
06:06AM 45.0384 21.2546 304° West  Level Estimated
06:07AM 45.1011 21.1209 304° West  Level Estimated
06:08AM 45.1637 20.9870 303° West  Level Estimated
06:09AM 45.2261 20.8528 303° West  Level Estimated
06:10AM 45.2883 20.7183 303° West  Level Estimated
06:11AM 45.3504 20.5835 303° West  Level Estimated
06:12AM 45.4123 20.4484 303° West  Level Estimated
06:13AM 45.4740 20.3130 303° West  Level Estimated
06:14AM 45.5356 20.1773 303° West  Level Estimated
06:15AM 45.5971 20.0413 303° West  Level Estimated
06:16AM 45.6584 19.9050 303° West  Level Estimated
06:17AM 45.7195 19.7685 303° West  Level Estimated
06:18AM 45.7804 19.6316 302° West  Level Estimated
06:19AM 45.8412 19.4944 302° West  Level Estimated
06:20AM 45.9019 19.3569 302° West  Level Estimated
06:21AM 45.9623 19.2191 302° West  Level Estimated
06:22AM 46.0226 19.0811 302° West  Level Estimated
06:23AM 46.0827 18.9427 302° West  Level Estimated
06:24AM 46.1427 18.8040 302° West  Level Estimated
06:25AM 46.2025 18.6650 302° West  Level Estimated
06:26AM 46.2621 18.5257 302° West  Level Estimated
06:27AM 46.3215 18.3861 302° West  Level Estimated
06:28AM 46.3808 18.2462 301° West  Level Estimated
06:29AM 46.4399 18.1060 301° West  Level Estimated
06:30AM 46.4989 17.9655 301° West  Level Estimated
06:31AM 46.5577 17.8247 301° West  Level Estimated
06:32AM 46.6162 17.6836 301° West  Level Estimated
06:33AM 46.6747 17.5422 301° West  Level Estimated
06:34AM 46.7329 17.4004 301° West  Level Estimated
06:35AM 46.7910 17.2584 301° West  Level Estimated
06:36AM 46.8489 17.1161 301° West  Level Estimated
06:37AM 46.9066 16.9734 301° West  Level Estimated
06:38AM 46.9641 16.8305 300° West  Level Estimated
06:39AM 47.0215 16.6872 300° West  Level Estimated
06:40AM 47.0787 16.5437 300° West  Level Estimated
06:41AM 47.1357 16.3998 300° West  Level Estimated
06:42AM 47.1925 16.2556 300° West  Level Estimated
06:43AM 47.2491 16.1111 300° West  Level Estimated
06:44AM 47.3056 15.9663 300° West  Level Estimated
06:45AM 47.3619 15.8212 300° West  Level Estimated
06:46AM 47.4180 15.6758 300° West  Level Estimated
06:47AM 47.4739 15.5301 300° West  Level Estimated
06:48AM 47.5296 15.3840 299° West  Level Estimated
06:49AM 47.5851 15.2377 299° West  Level Estimated
06:50AM 47.6405 15.0910 299° West  Level Estimated
06:51AM 47.6957 14.9440 299° West  Level Estimated
06:52AM 47.7506 14.7968 299° West  Level Estimated
06:53AM 47.8054 14.6492 299° West  Level Estimated
06:54AM 47.8600 14.5013 299° West  Level Estimated
06:55AM 47.9144 14.3531 299° West  Level Estimated
06:56AM 47.9687 14.2045 299° West  Level Estimated
06:57AM 48.0227 14.0557 298° West  Level Estimated
06:58AM 48.0765 13.9066 298° West  Level Estimated
06:59AM 48.1301 13.7571 298° West  Level Estimated
07:00AM 48.1836 13.6073 298° West  Level Estimated
07:01AM 48.2368 13.4572 298° West  Level Estimated
07:02AM 48.2899 13.3068 298° West  Level Estimated
07:03AM 48.3428 13.1561 298° West  Level Estimated
07:04AM 48.3954 13.0051 298° West  Level Estimated
07:05AM 48.4479 12.8538 298° West  Level Estimated
07:06AM 48.5001 12.7021 297° West  Level Estimated
07:07AM 48.5522 12.5502 297° West  Level Estimated
07:08AM 48.6040 12.3979 297° West  Level Estimated
07:09AM 48.6557 12.2453 297° West  Level Estimated
07:10AM 48.7072 12.0924 297° West  Level Estimated
07:11AM 48.7584 11.9392 297° West  Level Estimated
07:12AM 48.8095 11.7857 297° West  Level Estimated
07:13AM 48.8603 11.6319 297° West  Level Estimated
07:14AM 48.9110 11.4777 296° West  Level Estimated
07:15AM 48.9614 11.3233 296° West  Level Estimated
07:16AM 49.0116 11.1685 296° West  Level Estimated
07:17AM 49.0617 11.0134 296° West  Level Estimated
07:18AM 49.1115 10.8580 296° West  Level Estimated
07:19AM 49.1611 10.7023 296° West  Level Estimated
07:20AM 49.2105 10.5463 296° West  Level Estimated
07:21AM 49.2597 10.3900 296° West  Level Estimated
07:22AM 49.3087 10.2333 296° West  Level Estimated
07:23AM 49.3574 10.0764 295° West  Level Estimated
07:24AM 49.4060 9.9191 295° West  Level Estimated
07:25AM 49.4543 9.7616 295° West  Level Estimated
07:26AM 49.5024 9.6037 295° West  Level Estimated
07:27AM 49.5503 9.4455 295° West  Level Estimated
07:28AM 49.5980 9.2870 295° West  Level Estimated
07:29AM 49.6455 9.1282 295° West  Level Estimated
07:30AM 49.6928 8.9691 295° West  Level Estimated
07:31AM 49.7398 8.8096 294° West  Level Estimated
07:32AM 49.7866 8.6499 294° West  Level Estimated
07:33AM 49.8332 8.4898 294° West  Level Estimated
07:34AM 49.8796 8.3295 294° West  Level Estimated
07:35AM 49.9258 8.1688 294° West  Level Estimated
07:36AM 49.9717 8.0079 294° West  Level Estimated
07:37AM 50.0174 7.8466 294° West  Level Estimated
07:38AM 50.0629 7.6850 294° West  Level Estimated
07:39AM 50.1082 7.5231 293° West  Level Estimated
07:40AM 50.1532 7.3609 293° West  Level Estimated
07:41AM 50.1980 7.1984 293° West  Level Estimated
07:42AM 50.2426 7.0356 293° West  Level Estimated
07:43AM 50.2869 6.8725 293° West  Level Estimated
07:44AM 50.3311 6.7091 293° West  Level Estimated
07:45AM 50.3750 6.5454 293° West  Level Estimated
07:46AM 50.4187 6.3814 293° West  Level Estimated
07:47AM 50.4621 6.2171 292° West  Level Estimated
07:48AM 50.5053 6.0524 292° West  Level Estimated
07:49AM 50.5483 5.8875 292° West  Level Estimated
07:50AM 50.5910 5.7223 292° West  Level Estimated
07:51AM 50.6335 5.5568 292° West  Level Estimated
07:52AM 50.6758 5.3910 292° West  Level Estimated
07:53AM 50.7178 5.2248 292° West  Level Estimated
07:54AM 50.7596 5.0584 292° West  Level Estimated
07:55AM 50.8012 4.8917 291° West  Level Estimated
07:56AM 50.8425 4.7247 291° West  Level Estimated
07:57AM 50.8836 4.5574 291° West  Level Estimated
07:58AM 50.9244 4.3898 111° Southeast  Level Estimated
07:59AM 50.8836 4.5574 291° West  Level Estimated
08:00AM 50.9244 4.3898 111° Southeast  Level Estimated
08:01AM 50.8836 4.5574 291° West  Level Estimated
08:02AM 50.9244 4.3898 111° Southeast  Level Estimated
08:03AM 50.8836 4.5574 291° West  Level Estimated
08:04AM 50.9244 4.3898 111° Southeast  Level Estimated
08:05AM 50.8836 4.5574 291° West  Level Estimated
08:06AM 50.9244 4.3898 111° Southeast  Level Estimated
08:07AM 50.8836 4.5574 291° West  Level Estimated
08:08AM 50.9244 4.3898 111° Southeast  Level Estimated
08:09AM 50.8836 4.5574 291° West  Level Estimated
08:10AM 50.9244 4.3898 111° Southeast  Level Estimated
08:11AM 50.8836 4.5574 291° West  Level Estimated
08:12AM 50.9244 4.3898 111° Southeast  Level Estimated
08:13AM 50.8836 4.5574 111° Southeast  Level Estimated